サルヴァドール の空港の天気 - METARとTAF

サルヴァドール国際空港 ( SBSV / SSA ) - ブラジル バイーア州サルヴァドール
飛行場実況気象(Metar)
観測時間12/01 20:00 BRT (12/01 23:00 UTC)
風向・風速東北東 7m/s
視程10km以上
天気現象
少しの雲 雲底高度 700m
気温27℃
湿度74%
気圧1013hPa
METARSBSV 012300Z 06013KT 9999 FEW023 27/22 Q1013
過去の天気等 Google飛行場航空写真 Wunderground天気予報

過去48時間のMETAR

飛行場予報(TAF)
発表時間: 12/01 13:00 BRT (12/01 16:00 UTC)
予報対象時間: 1日15時 BRT ~ 2日15時 BRT
風向・風速東 5m/s
視程10km以上
全天の4割程度の雲 雲底高度 550m
2日2時 BRT から 確率 30% で
風向・風速不定 4m/s
天気現象周辺でしゅう雨
全天の8割程度の雲 雲底高度 550m
少しの塔状積雲 雲底高度 700m
TAF SBSV 011600Z 0118/0218 10009KT 9999 SCT018 TN25/0209Z TX30/0216Z
PROB30 0205/0211 VRB07KT VCSH BKN018 FEW023TCU RMK PGE